createdAt,value
2022-08-12T00:02:02.691Z,2.60
2022-08-12T00:04:52.044Z,2.35
2022-08-12T00:07:39.912Z,2.50
2022-08-12T00:10:26.354Z,2.42
2022-08-12T00:13:13.305Z,2.35
2022-08-12T00:16:02.372Z,2.40
2022-08-12T00:18:48.735Z,2.58
2022-08-12T00:21:37.134Z,2.53
2022-08-12T00:24:25.325Z,2.75
2022-08-12T00:27:11.891Z,2.83
2022-08-12T00:29:57.793Z,2.60
2022-08-12T00:32:54.712Z,2.70
2022-08-12T00:35:43.037Z,2.65
2022-08-12T00:38:30.627Z,3.72
2022-08-12T00:41:19.461Z,3.10
2022-08-12T00:43:48.447Z,2.70
2022-08-12T00:46:32.113Z,2.78
2022-08-12T00:49:01.739Z,2.83
2022-08-12T00:51:52.908Z,2.53
2022-08-12T00:54:21.307Z,2.53
2022-08-12T00:56:52.015Z,2.60
2022-08-12T00:59:20.689Z,2.80
2022-08-12T01:02:10.691Z,3.03
2022-08-12T01:04:56.780Z,2.80
2022-08-12T01:07:43.703Z,2.75
2022-08-12T01:10:32.902Z,3.05
2022-08-12T01:13:07.195Z,2.58
2022-08-12T01:15:49.302Z,3.00
2022-08-12T01:18:18.623Z,3.00
2022-08-12T01:20:51.337Z,3.10
2022-08-12T01:23:37.145Z,2.80
2022-08-12T01:26:07.823Z,2.80
2022-08-12T01:28:37.063Z,2.90
2022-08-12T01:31:06.666Z,2.67
2022-08-12T01:33:37.173Z,2.80
2022-08-12T01:36:07.768Z,2.53
2022-08-12T01:38:37.729Z,2.75
2022-08-12T01:41:10.049Z,2.90
2022-08-12T01:43:39.243Z,3.00
2022-08-12T01:46:09.822Z,2.75
2022-08-12T01:48:50.341Z,2.78
2022-08-12T01:52:04.543Z,2.88
2022-08-12T01:54:12.602Z,2.70
2022-08-12T01:56:49.036Z,2.80
2022-08-12T01:59:36.436Z,3.38
2022-08-12T02:02:10.296Z,2.65
2022-08-12T02:05:05.552Z,3.17
2022-08-12T02:07:56.769Z,3.10
2022-08-12T02:10:52.063Z,5.53
2022-08-12T02:13:42.094Z,3.53
2022-08-12T02:16:22.698Z,3.15
2022-08-12T02:18:58.579Z,3.33
2022-08-12T02:21:32.594Z,3.08
2022-08-12T02:24:01.234Z,3.10
2022-08-12T02:26:30.785Z,3.30
2022-08-12T02:29:01.164Z,3.00
2022-08-12T02:31:30.960Z,2.90
2022-08-12T02:33:59.794Z,3.40
2022-08-12T02:36:28.348Z,3.00
2022-08-12T02:39:01.652Z,3.05
2022-08-12T02:41:31.840Z,3.15
2022-08-12T02:44:05.875Z,3.00
2022-08-12T02:46:35.705Z,3.00
2022-08-12T02:49:06.328Z,3.00
2022-08-12T02:51:36.432Z,3.53
2022-08-12T02:54:07.235Z,3.38
2022-08-12T02:56:40.421Z,3.60
2022-08-12T02:59:11.971Z,3.25
2022-08-12T03:01:42.798Z,3.45
2022-08-12T03:04:21.093Z,3.13
2022-08-12T03:06:51.507Z,3.15
2022-08-12T03:09:21.023Z,3.20
2022-08-12T03:11:52.493Z,3.08
2022-08-12T03:14:23.726Z,3.40
2022-08-12T03:16:54.264Z,3.47
2022-08-12T03:19:24.468Z,3.35
2022-08-12T03:22:09.257Z,3.65
2022-08-12T03:24:40.041Z,3.67
2022-08-12T03:27:09.602Z,3.60
2022-08-12T03:29:49.879Z,3.55
2022-08-12T03:32:35.074Z,3.53
2022-08-12T03:35:07.218Z,3.17
2022-08-12T03:37:36.304Z,3.22
2022-08-12T03:40:05.000Z,3.35
2022-08-12T03:42:35.416Z,3.80
2022-08-12T03:45:31.516Z,3.80
2022-08-12T03:48:20.387Z,3.63
2022-08-12T03:51:06.774Z,3.80
2022-08-12T03:53:52.827Z,4.13
2022-08-12T03:56:38.876Z,3.85
2022-08-12T03:59:26.167Z,3.83
2022-08-12T04:01:58.346Z,4.70
2022-08-12T04:04:28.517Z,4.22
2022-08-12T04:06:57.941Z,6.32
2022-08-12T04:09:26.290Z,3.75
2022-08-12T04:12:12.371Z,4.43
2022-08-12T04:14:40.661Z,3.75
2022-08-12T04:17:10.313Z,3.72
2022-08-12T04:19:38.865Z,4.10
2022-08-12T04:22:07.118Z,4.07
2022-08-12T04:24:36.675Z,3.95
2022-08-12T04:27:08.444Z,3.53
2022-08-12T04:30:21.291Z,3.65
2022-08-12T04:32:27.566Z,4.15
2022-08-12T04:34:56.442Z,4.00
2022-08-12T04:37:24.771Z,3.83
2022-08-12T04:39:53.984Z,3.83
2022-08-12T04:42:25.422Z,3.40
2022-08-12T04:44:53.748Z,3.92
2022-08-12T04:47:22.586Z,3.60
2022-08-12T04:49:52.234Z,3.50
2022-08-12T04:52:21.196Z,3.40
2022-08-12T04:54:49.671Z,4.20
2022-08-12T04:57:17.923Z,3.80
2022-08-12T04:59:48.372Z,3.92
2022-08-12T05:02:20.969Z,4.25
2022-08-12T05:04:52.734Z,4.10
2022-08-12T05:07:21.212Z,4.65
2022-08-12T05:10:01.132Z,4.35
2022-08-12T05:12:32.159Z,4.45
2022-08-12T05:15:00.810Z,4.60
2022-08-12T05:17:29.241Z,4.35
2022-08-12T05:20:00.054Z,4.40
2022-08-12T05:22:28.808Z,4.13
2022-08-12T05:24:57.072Z,3.97
2022-08-12T05:27:26.114Z,4.35
2022-08-12T05:30:08.197Z,4.28
2022-08-12T05:32:37.971Z,4.30
2022-08-12T05:35:08.153Z,4.93
2022-08-12T05:37:36.896Z,3.50
2022-08-12T05:40:10.883Z,4.10
2022-08-12T05:42:40.070Z,4.13
2022-08-12T05:45:09.069Z,4.38
2022-08-12T05:47:53.035Z,4.03
2022-08-12T05:50:23.553Z,4.18
2022-08-12T05:52:53.017Z,5.38
2022-08-12T05:55:24.175Z,4.45
2022-08-12T05:57:55.277Z,4.70
2022-08-12T06:00:25.484Z,4.22
2022-08-12T06:03:01.157Z,4.00
2022-08-12T06:05:34.410Z,4.43
2022-08-12T06:08:21.060Z,4.15
2022-08-12T06:10:50.060Z,4.72
2022-08-12T06:13:27.865Z,4.07
2022-08-12T06:16:07.274Z,4.55
2022-08-12T06:18:35.754Z,4.15
2022-08-12T06:21:07.306Z,3.60
2022-08-12T06:23:39.194Z,3.10
2022-08-12T06:26:12.551Z,3.78
2022-08-12T06:28:41.183Z,3.67
2022-08-12T06:31:26.678Z,3.55
2022-08-12T06:34:57.969Z,3.80
2022-08-12T06:36:45.904Z,3.50
2022-08-12T06:39:15.298Z,3.25
2022-08-12T06:42:02.603Z,3.60
2022-08-12T06:44:50.341Z,4.22
2022-08-12T06:47:19.927Z,3.90
2022-08-12T06:49:50.124Z,4.22
2022-08-12T06:52:23.065Z,4.40
2022-08-12T06:54:53.489Z,4.05
2022-08-12T06:58:08.150Z,4.38
2022-08-12T07:00:12.166Z,5.13
2022-08-12T07:02:40.747Z,4.22
2022-08-12T07:05:09.585Z,4.32
2022-08-12T07:07:39.344Z,4.18
2022-08-12T07:10:08.587Z,3.50
2022-08-12T07:12:37.286Z,4.15
2022-08-12T07:15:06.196Z,4.45
2022-08-12T07:17:37.555Z,4.10
2022-08-12T07:20:09.914Z,3.90
2022-08-12T07:22:41.818Z,4.93
2022-08-12T07:25:28.408Z,4.53
2022-08-12T07:27:58.741Z,4.50
2022-08-12T07:30:27.212Z,3.80
2022-08-12T07:32:58.611Z,3.95
2022-08-12T07:35:30.477Z,3.20
2022-08-12T07:38:00.743Z,3.60
2022-08-12T07:40:29.968Z,3.63
2022-08-12T07:42:58.424Z,3.22
2022-08-12T07:45:26.714Z,3.50
2022-08-12T07:47:55.616Z,3.90
2022-08-12T07:50:24.131Z,3.30
2022-08-12T07:52:52.470Z,2.88
2022-08-12T07:55:22.099Z,4.70
2022-08-12T07:57:52.402Z,3.80
2022-08-12T08:00:21.165Z,3.72
2022-08-12T08:02:50.405Z,2.97
2022-08-12T08:05:19.588Z,3.47
2022-08-12T08:07:47.878Z,3.20
2022-08-12T08:10:16.624Z,3.60
2022-08-12T08:12:54.336Z,3.30
2022-08-12T08:15:38.548Z,3.15
2022-08-12T08:18:14.955Z,3.60
2022-08-12T08:21:10.977Z,3.30
2022-08-12T08:23:58.874Z,3.20
2022-08-12T08:26:33.037Z,3.58
2022-08-12T08:29:02.769Z,3.13
2022-08-12T08:31:32.611Z,3.70
2022-08-12T08:34:27.537Z,3.17
2022-08-12T08:36:49.821Z,3.58
2022-08-12T08:39:20.656Z,3.80
2022-08-12T08:42:21.135Z,3.13
2022-08-12T08:44:57.782Z,3.10
2022-08-12T08:47:26.622Z,2.80
2022-08-12T08:50:00.835Z,3.10
2022-08-12T08:52:39.411Z,3.10
2022-08-12T08:55:09.420Z,3.20
2022-08-12T08:57:44.080Z,3.10
2022-08-12T09:00:15.950Z,3.00
2022-08-12T09:02:49.475Z,2.75
2022-08-12T09:05:26.704Z,2.92
2022-08-12T09:08:08.835Z,2.65
2022-08-12T09:10:45.118Z,2.67
2022-08-12T09:13:28.945Z,2.50
2022-08-12T09:16:20.003Z,2.78
2022-08-12T09:21:54.592Z,2.70
2022-08-12T09:24:27.616Z,3.03
2022-08-12T09:26:56.217Z,2.80
2022-08-12T09:30:09.670Z,2.50
2022-08-12T09:32:31.309Z,2.70
2022-08-12T09:35:21.900Z,2.42
2022-08-12T09:37:57.713Z,2.30
2022-08-12T09:41:01.895Z,2.20
2022-08-12T09:43:33.834Z,2.10
2022-08-12T09:46:06.402Z,2.22
2022-08-12T09:48:56.676Z,2.60
2022-08-12T09:51:37.464Z,2.30
2022-08-12T09:54:31.483Z,2.08
2022-08-12T09:57:02.177Z,2.30
2022-08-12T10:00:17.029Z,2.30
2022-08-12T10:02:44.264Z,1.88
2022-08-12T10:05:13.993Z,2.10
2022-08-12T10:07:46.337Z,2.40
2022-08-12T10:10:24.449Z,2.30
2022-08-12T10:13:13.589Z,2.28
2022-08-12T10:16:02.028Z,2.10
2022-08-12T10:18:35.270Z,2.30
2022-08-12T10:21:08.396Z,1.92
2022-08-12T10:23:39.827Z,2.30
2022-08-12T10:26:36.939Z,2.20
2022-08-12T10:30:03.268Z,2.10
2022-08-12T10:32:20.579Z,2.15
2022-08-12T10:34:53.269Z,2.08
2022-08-12T10:38:35.973Z,2.15
2022-08-12T10:40:20.412Z,2.25
2022-08-12T10:43:08.122Z,2.20
2022-08-12T10:45:38.454Z,2.00
2022-08-12T10:48:23.086Z,2.00
2022-08-12T10:51:00.378Z,2.42
2022-08-12T10:53:44.333Z,2.00
2022-08-12T10:56:15.378Z,2.28
2022-08-12T10:58:46.287Z,1.83
2022-08-12T11:01:50.614Z,2.22
2022-08-12T11:04:28.592Z,2.00
2022-08-12T11:07:05.073Z,2.20
2022-08-12T11:10:00.223Z,2.33
2022-08-12T11:12:56.034Z,2.08
2022-08-12T11:15:32.926Z,1.90
2022-08-12T11:18:11.558Z,2.00
2022-08-12T11:20:47.604Z,1.98
2022-08-12T11:23:36.218Z,2.10
2022-08-12T11:26:06.977Z,2.20
2022-08-12T11:28:37.169Z,1.95
2022-08-12T11:31:06.834Z,1.92
2022-08-12T11:34:06.192Z,2.30
2022-08-12T11:36:26.603Z,2.10
2022-08-12T11:38:56.178Z,2.00
2022-08-12T11:41:31.092Z,2.08
2022-08-12T11:44:11.096Z,2.05
2022-08-12T11:46:50.994Z,2.05
2022-08-12T11:49:31.208Z,2.00
2022-08-12T11:52:01.770Z,2.28
2022-08-12T11:54:30.443Z,1.77
2022-08-12T11:57:02.834Z,2.00
2022-08-12T12:02:37.188Z,2.20
2022-08-12T12:05:05.845Z,2.10
2022-08-12T12:08:38.696Z,2.30
2022-08-12T12:10:23.264Z,2.58
2022-08-12T12:12:53.167Z,2.33
2022-08-12T12:15:25.456Z,2.42
2022-08-12T12:18:22.378Z,1.95
2022-08-12T12:21:00.086Z,2.20
2022-08-12T12:23:29.783Z,2.33
2022-08-12T12:26:08.210Z,2.10
2022-08-12T12:28:41.469Z,1.98
2022-08-12T12:32:10.364Z,2.25
2022-08-12T12:34:12.503Z,2.20
2022-08-12T12:37:00.988Z,2.47
2022-08-12T12:39:30.029Z,2.10
2022-08-12T12:42:43.351Z,2.03
2022-08-12T12:45:19.146Z,2.40
2022-08-12T12:47:58.161Z,2.25
2022-08-12T12:50:35.064Z,2.53
2022-08-12T12:53:04.629Z,2.47
2022-08-12T12:55:35.760Z,2.28
2022-08-12T12:58:04.848Z,2.10
2022-08-12T13:00:34.714Z,2.70
2022-08-12T13:03:02.975Z,2.47
2022-08-12T13:05:42.580Z,2.47
2022-08-12T13:08:35.646Z,2.47
2022-08-12T13:11:05.919Z,2.50
2022-08-12T13:14:09.648Z,2.20
2022-08-12T13:16:29.307Z,2.50
2022-08-12T13:18:58.348Z,2.60
2022-08-12T13:21:36.656Z,2.65
2022-08-12T13:24:09.548Z,2.28
2022-08-12T13:26:40.768Z,2.30
2022-08-12T13:29:11.139Z,2.55
2022-08-12T13:32:17.349Z,2.40
2022-08-12T13:34:34.869Z,2.15
2022-08-12T13:37:04.415Z,2.70
2022-08-12T13:39:37.694Z,2.60
2022-08-12T13:42:13.556Z,2.85
2022-08-12T13:44:42.310Z,2.20
2022-08-12T13:47:19.578Z,2.40
2022-08-12T13:49:54.596Z,2.47
2022-08-12T13:52:25.600Z,2.45
2022-08-12T13:54:56.663Z,2.50
2022-08-12T13:57:26.436Z,2.50
2022-08-12T13:59:55.407Z,2.28
2022-08-12T14:02:30.336Z,2.42
2022-08-12T14:04:58.696Z,2.20
2022-08-12T14:07:27.704Z,2.40
2022-08-12T14:10:16.489Z,2.35
2022-08-12T14:12:54.628Z,2.20
2022-08-12T14:15:36.702Z,2.30
2022-08-12T14:18:14.543Z,2.28
2022-08-12T14:20:47.709Z,2.20
2022-08-12T14:24:08.015Z,2.13
2022-08-12T14:26:06.830Z,2.20
2022-08-12T14:28:44.999Z,2.50
2022-08-12T14:31:31.398Z,2.10
2022-08-12T14:34:05.173Z,2.08
2022-08-12T14:36:34.050Z,2.17
2022-08-12T14:39:06.081Z,2.40
2022-08-12T14:41:36.544Z,1.80
2022-08-12T14:44:59.106Z,2.00
2022-08-12T14:46:56.936Z,1.90
2022-08-12T14:50:37.144Z,2.05
2022-08-12T14:53:41.273Z,2.28
2022-08-12T14:57:57.391Z,2.40
2022-08-12T15:00:50.758Z,2.17
2022-08-12T15:03:52.051Z,2.28
2022-08-12T15:06:39.223Z,2.10
2022-08-12T15:09:09.218Z,2.20
2022-08-12T15:11:55.725Z,2.30
2022-08-12T15:14:30.342Z,2.25
2022-08-12T15:17:00.586Z,2.53
2022-08-12T15:20:07.547Z,2.47
2022-08-12T15:22:39.583Z,2.40
2022-08-12T15:25:08.925Z,2.67
2022-08-12T15:28:05.513Z,2.45
2022-08-12T15:30:32.780Z,2.80
2022-08-12T15:33:03.251Z,2.30
2022-08-12T15:35:52.209Z,2.20
2022-08-12T15:38:25.295Z,2.45
2022-08-12T15:40:55.030Z,2.22
2022-08-12T15:43:51.286Z,2.30
2022-08-12T15:46:15.406Z,2.17
2022-08-12T15:48:46.375Z,2.03
2022-08-12T15:51:59.841Z,2.10
2022-08-12T15:54:35.041Z,2.55
2022-08-12T15:57:08.687Z,1.98
2022-08-12T15:59:51.414Z,2.40
2022-08-12T16:02:29.699Z,2.35
2022-08-12T16:04:58.406Z,2.05
2022-08-12T16:07:40.839Z,2.05
2022-08-12T16:10:12.203Z,2.10
2022-08-12T16:12:43.388Z,2.20
2022-08-12T16:15:12.082Z,2.03
2022-08-12T16:18:19.374Z,2.70
2022-08-12T16:20:34.744Z,2.28
2022-08-12T16:23:26.869Z,2.13
2022-08-12T16:26:05.128Z,2.17
2022-08-12T16:28:34.800Z,2.20
2022-08-12T16:31:05.740Z,2.10
2022-08-12T16:33:59.089Z,2.10
2022-08-12T16:36:27.137Z,2.30
2022-08-12T16:38:55.405Z,2.03
2022-08-12T16:41:28.166Z,2.10
2022-08-12T16:43:56.608Z,2.08
2022-08-12T16:46:33.482Z,2.10
2022-08-12T16:49:09.037Z,2.30
2022-08-12T16:51:46.813Z,2.08
2022-08-12T16:54:16.358Z,2.10
2022-08-12T16:56:54.502Z,2.00
2022-08-12T16:59:24.107Z,2.00
2022-08-12T17:01:52.652Z,1.95
2022-08-12T17:04:24.336Z,2.00
2022-08-12T17:06:53.434Z,1.98
2022-08-12T17:09:21.793Z,2.10
2022-08-12T17:11:51.427Z,2.00
2022-08-12T17:14:23.424Z,1.90
2022-08-12T17:16:54.962Z,1.98
2022-08-12T17:20:30.467Z,1.92
2022-08-12T17:22:16.335Z,2.10
2022-08-12T17:24:54.820Z,2.13
2022-08-12T17:27:26.213Z,2.20
2022-08-12T17:30:02.400Z,2.40
2022-08-12T17:32:35.922Z,2.05
2022-08-12T17:35:30.131Z,1.80
2022-08-12T17:38:06.256Z,2.00
2022-08-12T17:40:37.080Z,1.95
2022-08-12T17:43:52.260Z,1.67
2022-08-12T17:45:59.838Z,2.22
2022-08-12T17:48:34.640Z,1.77
2022-08-12T17:51:15.750Z,2.10
2022-08-12T17:54:10.386Z,1.83
2022-08-12T17:56:37.114Z,2.15
2022-08-12T17:59:12.475Z,1.90
2022-08-12T18:01:45.142Z,2.58
2022-08-12T18:04:23.221Z,2.13
2022-08-12T18:07:02.823Z,2.00
2022-08-12T18:09:36.418Z,2.53
2022-08-12T18:12:24.588Z,2.17
2022-08-12T18:15:00.591Z,2.28
2022-08-12T18:17:29.640Z,2.08
2022-08-12T18:20:05.626Z,2.15
2022-08-12T18:22:38.710Z,2.10
2022-08-12T18:26:12.572Z,2.20
2022-08-12T18:28:11.706Z,2.10
2022-08-12T18:30:52.620Z,2.10
2022-08-12T18:33:25.530Z,2.03
2022-08-12T18:35:56.719Z,2.33
2022-08-12T18:38:27.962Z,2.33
2022-08-12T18:41:21.869Z,2.13
2022-08-12T18:43:59.533Z,2.13
2022-08-12T18:46:33.149Z,2.72
2022-08-12T18:49:16.990Z,2.30
2022-08-12T18:51:55.442Z,2.63
2022-08-12T18:54:35.613Z,2.40
2022-08-12T18:57:16.178Z,2.47
2022-08-12T18:59:59.676Z,2.22
2022-08-12T19:02:36.154Z,2.38
2022-08-12T19:05:09.812Z,2.20
2022-08-12T19:07:49.454Z,2.17
2022-08-12T19:10:28.347Z,2.13
2022-08-12T19:13:23.859Z,2.42
2022-08-12T19:15:54.105Z,2.75
2022-08-12T19:18:29.174Z,2.90
2022-08-12T19:20:58.829Z,2.55
2022-08-12T19:23:34.867Z,2.60
2022-08-12T19:26:03.277Z,2.50
2022-08-12T19:28:34.886Z,2.70
2022-08-12T19:31:44.585Z,2.40
2022-08-12T19:34:47.078Z,2.50
2022-08-12T19:37:17.079Z,2.20
2022-08-12T19:40:07.900Z,2.25
2022-08-12T19:42:34.065Z,2.80
2022-08-12T19:45:04.868Z,2.88
2022-08-12T19:47:38.913Z,2.30
2022-08-12T19:50:11.263Z,3.40
2022-08-12T19:52:40.834Z,2.70
2022-08-12T19:55:11.549Z,2.55
2022-08-12T19:58:01.277Z,2.63
2022-08-12T20:00:31.153Z,2.42
2022-08-12T20:03:00.878Z,2.10
2022-08-12T20:06:06.996Z,2.25
2022-08-12T20:08:33.954Z,2.17
2022-08-12T20:12:13.201Z,2.75
2022-08-12T20:14:00.682Z,2.60
2022-08-12T20:16:53.124Z,2.30
2022-08-12T20:19:18.274Z,2.70
2022-08-12T20:21:49.501Z,2.33
2022-08-12T20:24:19.400Z,2.55
2022-08-12T20:26:49.031Z,2.50
2022-08-12T20:29:17.391Z,2.63
2022-08-12T20:31:52.006Z,2.35
2022-08-12T20:34:20.345Z,2.67
2022-08-12T20:36:57.077Z,2.60
2022-08-12T20:39:53.228Z,2.38
2022-08-12T20:42:16.869Z,2.50
2022-08-12T20:44:46.437Z,2.40
2022-08-12T20:47:19.905Z,2.50
2022-08-12T20:49:54.828Z,1.90
2022-08-12T20:52:30.093Z,2.58
2022-08-12T20:54:59.403Z,2.40
2022-08-12T20:57:38.325Z,2.35
2022-08-12T21:00:19.373Z,2.47
2022-08-12T21:02:51.196Z,2.67
2022-08-12T21:06:13.602Z,2.10
2022-08-12T21:08:27.834Z,2.00
2022-08-12T21:10:59.001Z,1.90
2022-08-12T21:13:29.461Z,2.30
2022-08-12T21:16:09.694Z,2.00
2022-08-12T21:18:38.600Z,2.40
2022-08-12T21:21:24.184Z,2.10
2022-08-12T21:23:58.855Z,1.95
2022-08-12T21:26:27.706Z,2.13
2022-08-12T21:29:01.400Z,2.25
2022-08-12T21:32:40.816Z,2.17
2022-08-12T21:34:22.139Z,1.95
2022-08-12T21:36:59.146Z,2.30
2022-08-12T21:39:35.850Z,2.08
2022-08-12T21:42:06.882Z,2.10
2022-08-12T21:45:45.777Z,2.15
2022-08-12T21:47:25.248Z,2.55
2022-08-12T21:50:06.460Z,2.15
2022-08-12T21:52:36.522Z,2.50
2022-08-12T21:55:18.280Z,2.33
2022-08-12T21:57:53.825Z,2.15
2022-08-12T22:00:23.947Z,2.10
2022-08-12T22:04:01.929Z,1.95
2022-08-12T22:06:30.984Z,2.13
2022-08-12T22:09:16.332Z,2.40
2022-08-12T22:11:56.478Z,2.10
2022-08-12T22:14:29.117Z,2.08
2022-08-12T22:17:00.762Z,1.90
2022-08-12T22:19:35.091Z,2.03
2022-08-12T22:22:04.141Z,2.20
2022-08-12T22:24:33.372Z,2.10
2022-08-12T22:27:17.923Z,2.28
2022-08-12T22:30:13.830Z,2.10
2022-08-12T22:32:50.721Z,2.20
2022-08-12T22:35:55.551Z,2.00
2022-08-12T22:38:25.336Z,2.38
2022-08-12T22:40:55.134Z,1.90
2022-08-12T22:43:58.688Z,1.70
2022-08-12T22:46:52.825Z,1.73
2022-08-12T22:49:36.413Z,1.27
2022-08-12T22:52:12.768Z,1.88
2022-08-12T22:54:57.954Z,2.83
2022-08-12T22:57:53.922Z,1.83
2022-08-12T23:00:24.479Z,1.90
2022-08-12T23:03:00.477Z,1.90
2022-08-12T23:05:56.790Z,1.77
2022-08-12T23:08:21.835Z,2.10
2022-08-12T23:10:50.620Z,2.20
2022-08-12T23:13:43.107Z,2.05
2022-08-12T23:16:18.203Z,2.05
2022-08-12T23:18:59.938Z,1.88
2022-08-12T23:21:40.471Z,2.00
2022-08-12T23:24:19.493Z,1.85
2022-08-12T23:27:06.170Z,1.90
2022-08-12T23:29:43.272Z,1.83
2022-08-12T23:32:35.278Z,2.20
2022-08-12T23:35:03.833Z,1.90
2022-08-12T23:37:46.991Z,1.85
2022-08-12T23:40:22.099Z,2.00
2022-08-12T23:42:50.984Z,1.70
2022-08-12T23:45:30.747Z,1.90
2022-08-12T23:48:01.864Z,2.00
2022-08-12T23:50:34.353Z,1.80
2022-08-12T23:53:05.795Z,2.10
2022-08-12T23:55:45.491Z,1.73
2022-08-12T23:58:22.679Z,1.63
